UNKL 290300Z 27004MPS CAVOK M18/M23 Q1048 R29/410150 NOSIG RMK QFE760
QNH:(hPa/inHg/mmHg)1048 / 30.95 / 786
QFE:(hPa/inHg/mmHg)1013 / 29.92 / 760
Temperature-18
Dew Point-23
Visibility> 10000
WeatherCAVOK
Cloud Cover
Transition Height1200 m./4900 ft.
Transition LevelFL60
SQUAWK